createdAt,value
2022-08-26T00:00:44.642Z,96.50
2022-08-26T00:03:19.042Z,96.50
2022-08-26T00:05:51.982Z,96.50
2022-08-26T00:08:24.262Z,96.60
2022-08-26T00:10:56.444Z,96.50
2022-08-26T00:13:34.131Z,96.60
2022-08-26T00:16:08.120Z,96.80
2022-08-26T00:18:43.700Z,96.30
2022-08-26T00:21:15.901Z,96.70
2022-08-26T00:23:48.638Z,96.50
2022-08-26T00:26:20.875Z,96.50
2022-08-26T00:28:53.243Z,96.70
2022-08-26T00:31:25.874Z,97.90
2022-08-26T00:33:59.177Z,97.80
2022-08-26T00:36:31.935Z,98.10
2022-08-26T00:39:07.039Z,98.00
2022-08-26T00:41:40.876Z,98.20
2022-08-26T00:44:12.989Z,99.30
2022-08-26T00:46:50.866Z,99.40
2022-08-26T00:49:42.907Z,99.90
2022-08-26T00:52:19.828Z,99.90
2022-08-26T00:55:03.777Z,99.90
2022-08-26T00:57:42.407Z,99.90
2022-08-26T01:00:20.556Z,99.90
2022-08-26T01:02:57.569Z,99.90
2022-08-26T01:05:32.588Z,99.90
2022-08-26T01:08:04.516Z,99.90
2022-08-26T01:10:37.213Z,99.90
2022-08-26T01:13:11.233Z,99.90
2022-08-26T01:15:48.462Z,99.90
2022-08-26T01:18:25.615Z,99.90
2022-08-26T01:21:27.749Z,99.90
2022-08-26T01:24:13.969Z,99.90
2022-08-26T01:26:46.539Z,99.90
2022-08-26T01:29:20.208Z,99.90
2022-08-26T01:31:56.522Z,99.90
2022-08-26T01:34:35.009Z,99.90
2022-08-26T01:37:16.250Z,99.90
2022-08-26T01:39:54.229Z,99.90
2022-08-26T01:42:28.459Z,99.90
2022-08-26T01:45:18.449Z,99.90
2022-08-26T01:47:59.733Z,99.90
2022-08-26T01:50:36.880Z,99.90
2022-08-26T01:53:13.010Z,99.90
2022-08-26T01:55:53.019Z,99.90
2022-08-26T01:58:36.265Z,99.90
2022-08-26T02:01:12.577Z,99.90
2022-08-26T02:04:15.768Z,99.90
2022-08-26T02:07:02.336Z,99.90
2022-08-26T02:09:41.641Z,99.90
2022-08-26T02:12:16.031Z,99.90
2022-08-26T02:14:59.783Z,99.90
2022-08-26T02:17:43.017Z,99.90
2022-08-26T02:20:19.425Z,99.90
2022-08-26T02:22:52.199Z,99.90
2022-08-26T02:25:57.867Z,99.90
2022-08-26T02:29:03.900Z,99.90
2022-08-26T02:31:41.312Z,99.90
2022-08-26T02:34:21.845Z,99.90
2022-08-26T02:37:07.219Z,99.90
2022-08-26T02:39:42.597Z,99.90
2022-08-26T02:42:15.097Z,99.90
2022-08-26T02:44:47.362Z,99.90
2022-08-26T02:47:20.112Z,99.90
2022-08-26T02:49:57.030Z,99.90
2022-08-26T02:52:29.133Z,99.90
2022-08-26T02:55:01.191Z,99.90
2022-08-26T02:57:35.479Z,99.90
2022-08-26T03:00:11.012Z,99.90
2022-08-26T03:02:45.580Z,99.90
2022-08-26T03:05:19.729Z,99.90
2022-08-26T03:07:53.063Z,99.90
2022-08-26T03:10:26.103Z,99.90
2022-08-26T03:13:00.577Z,99.90
2022-08-26T03:15:37.232Z,99.90
2022-08-26T03:18:11.000Z,99.90
2022-08-26T03:20:44.115Z,99.90
2022-08-26T03:23:17.269Z,99.90
2022-08-26T03:25:51.704Z,99.90
2022-08-26T03:28:24.673Z,99.90
2022-08-26T03:31:00.088Z,99.90
2022-08-26T03:33:32.210Z,99.90
2022-08-26T03:36:06.589Z,99.90
2022-08-26T03:38:38.610Z,99.90
2022-08-26T03:41:12.265Z,99.90
2022-08-26T03:43:44.741Z,99.90
2022-08-26T03:46:20.062Z,99.90
2022-08-26T03:48:52.966Z,99.90
2022-08-26T03:51:24.947Z,99.90
2022-08-26T03:53:57.309Z,99.90
2022-08-26T03:56:33.347Z,99.90
2022-08-26T03:59:07.609Z,99.90
2022-08-26T04:01:39.884Z,99.90
2022-08-26T04:04:12.465Z,99.90
2022-08-26T04:06:47.691Z,99.90
2022-08-26T04:09:21.054Z,99.90
2022-08-26T04:11:53.465Z,99.90
2022-08-26T04:14:27.814Z,99.90
2022-08-26T04:17:01.033Z,99.90
2022-08-26T04:19:35.916Z,99.90
2022-08-26T04:22:08.443Z,99.90
2022-08-26T04:24:41.859Z,99.90
2022-08-26T04:27:13.899Z,99.90
2022-08-26T04:29:46.615Z,99.90
2022-08-26T04:32:20.274Z,99.90
2022-08-26T04:34:52.238Z,99.90
2022-08-26T04:37:24.473Z,99.90
2022-08-26T04:39:56.719Z,99.90
2022-08-26T04:42:29.959Z,99.90
2022-08-26T04:45:05.844Z,99.90
2022-08-26T04:47:42.609Z,99.90
2022-08-26T04:50:15.412Z,99.90
2022-08-26T04:52:51.673Z,99.90
2022-08-26T04:55:28.281Z,99.90
2022-08-26T04:58:15.145Z,99.90
2022-08-26T05:00:49.572Z,99.90
2022-08-26T05:03:25.475Z,99.90
2022-08-26T05:05:58.692Z,99.90
2022-08-26T05:08:34.673Z,99.90
2022-08-26T05:11:07.437Z,99.90
2022-08-26T05:13:42.425Z,99.90
2022-08-26T05:16:16.193Z,99.90
2022-08-26T05:18:48.391Z,99.90
2022-08-26T05:21:23.781Z,99.90
2022-08-26T05:23:57.954Z,99.90
2022-08-26T05:26:31.658Z,99.90
2022-08-26T05:29:04.603Z,99.90
2022-08-26T05:31:37.506Z,99.90
2022-08-26T05:34:10.139Z,99.90
2022-08-26T05:36:42.276Z,99.90
2022-08-26T05:39:14.851Z,99.90
2022-08-26T05:41:47.175Z,99.90
2022-08-26T05:44:21.019Z,99.90
2022-08-26T05:46:55.337Z,99.90
2022-08-26T05:49:27.369Z,99.90
2022-08-26T05:51:59.416Z,99.90
2022-08-26T05:54:33.938Z,99.90
2022-08-26T05:57:06.068Z,99.90
2022-08-26T05:59:39.138Z,99.90
2022-08-26T06:02:11.185Z,99.90
2022-08-26T06:04:45.711Z,99.90
2022-08-26T06:07:18.501Z,99.90
2022-08-26T06:10:32.605Z,99.90
2022-08-26T06:13:11.663Z,99.90
2022-08-26T06:15:47.879Z,99.90
2022-08-26T06:18:27.354Z,99.90
2022-08-26T06:21:33.687Z,99.90
2022-08-26T06:24:30.214Z,99.90
2022-08-26T06:27:21.995Z,99.90
2022-08-26T06:29:55.983Z,99.90
2022-08-26T06:32:28.286Z,99.90
2022-08-26T06:35:01.612Z,99.90
2022-08-26T06:37:33.842Z,99.90
2022-08-26T06:40:07.599Z,99.90
2022-08-26T06:42:40.427Z,99.90
2022-08-26T06:45:12.605Z,99.90
2022-08-26T06:47:45.066Z,99.90
2022-08-26T06:50:21.567Z,99.90
2022-08-26T06:52:54.733Z,99.90
2022-08-26T06:55:29.515Z,99.90
2022-08-26T06:58:02.078Z,99.90
2022-08-26T07:00:38.463Z,99.90
2022-08-26T07:03:14.745Z,99.90
2022-08-26T07:05:47.799Z,99.90
2022-08-26T07:08:22.394Z,99.90
2022-08-26T07:10:55.995Z,99.90
2022-08-26T07:13:30.906Z,99.90
2022-08-26T07:16:04.821Z,99.90
2022-08-26T07:18:40.272Z,99.90
2022-08-26T07:21:16.632Z,99.90
2022-08-26T07:23:56.402Z,99.90
2022-08-26T07:26:45.329Z,99.90
2022-08-26T07:29:18.603Z,99.90
2022-08-26T07:31:51.274Z,99.90
2022-08-26T07:34:24.071Z,99.90
2022-08-26T07:36:57.062Z,99.90
2022-08-26T07:39:31.460Z,99.90
2022-08-26T07:42:07.680Z,99.90
2022-08-26T07:44:43.013Z,99.90
2022-08-26T07:47:24.788Z,99.90
2022-08-26T07:49:58.699Z,99.90
2022-08-26T07:52:31.254Z,99.90
2022-08-26T07:55:04.552Z,99.90
2022-08-26T07:57:38.554Z,99.90
2022-08-26T08:00:15.971Z,99.90
2022-08-26T08:02:49.354Z,99.90
2022-08-26T08:05:23.246Z,99.90
2022-08-26T08:08:26.242Z,99.90
2022-08-26T08:10:59.695Z,99.90
2022-08-26T08:13:32.719Z,99.90
2022-08-26T08:16:05.555Z,99.90
2022-08-26T08:18:38.487Z,99.90
2022-08-26T08:21:21.142Z,99.90
2022-08-26T08:23:57.276Z,99.90
2022-08-26T08:26:29.508Z,99.90
2022-08-26T08:29:01.858Z,99.20
2022-08-26T08:34:29.159Z,95.90
2022-08-26T08:37:02.071Z,93.70
2022-08-26T08:39:36.623Z,93.50
2022-08-26T08:42:31.819Z,93.70
2022-08-26T08:45:34.496Z,92.10
2022-08-26T08:48:19.849Z,91.10
2022-08-26T08:51:08.557Z,90.60
2022-08-26T08:53:56.103Z,88.90
2022-08-26T08:56:33.743Z,86.30
2022-08-26T08:59:27.924Z,89.00
2022-08-26T09:02:11.494Z,90.20
2022-08-26T09:05:20.547Z,90.10
2022-08-26T09:08:06.678Z,85.80
2022-08-26T09:10:49.794Z,88.20
2022-08-26T09:13:27.623Z,88.00
2022-08-26T09:16:07.551Z,86.70
2022-08-26T09:18:50.713Z,87.30
2022-08-26T09:21:40.917Z,84.30
2022-08-26T09:24:13.920Z,86.70
2022-08-26T09:26:48.045Z,82.60
2022-08-26T09:29:22.569Z,81.00
2022-08-26T09:32:20.244Z,82.10
2022-08-26T09:35:02.395Z,83.70
2022-08-26T09:37:42.554Z,85.20
2022-08-26T09:40:20.330Z,86.00
2022-08-26T09:43:15.965Z,86.40
2022-08-26T09:46:10.521Z,84.10
2022-08-26T09:48:51.767Z,86.80
2022-08-26T09:51:31.991Z,87.10
2022-08-26T09:54:05.806Z,86.30
2022-08-26T09:57:16.193Z,86.60
2022-08-26T09:59:51.359Z,86.40
2022-08-26T10:02:39.318Z,85.20
2022-08-26T10:05:19.082Z,84.90
2022-08-26T10:08:16.363Z,85.30
2022-08-26T10:10:57.789Z,85.30
2022-08-26T10:13:36.563Z,86.30
2022-08-26T10:16:20.646Z,85.70
2022-08-26T10:19:09.739Z,86.40
2022-08-26T10:22:25.972Z,86.10
2022-08-26T10:25:28.441Z,86.40
2022-08-26T10:28:18.050Z,85.70
2022-08-26T10:31:18.547Z,87.30
2022-08-26T10:34:13.968Z,88.60
2022-08-26T10:37:15.442Z,88.30
2022-08-26T10:39:57.236Z,87.20
2022-08-26T10:42:49.143Z,87.00
2022-08-26T10:45:31.467Z,87.90
2022-08-26T10:48:10.859Z,84.70
2022-08-26T10:50:47.959Z,83.60
2022-08-26T10:53:25.409Z,82.40
2022-08-26T10:56:58.818Z,85.00
2022-08-26T10:59:43.804Z,80.80
2022-08-26T11:02:49.862Z,80.20
2022-08-26T11:05:23.608Z,79.50
2022-08-26T11:08:31.335Z,79.20
2022-08-26T11:11:03.445Z,80.20
2022-08-26T11:13:57.488Z,75.20
2022-08-26T11:16:46.653Z,77.60
2022-08-26T11:19:57.120Z,74.70
2022-08-26T11:22:37.973Z,74.50
2022-08-26T11:25:27.853Z,75.60
2022-08-26T11:28:44.823Z,76.10
2022-08-26T11:31:25.320Z,74.30
2022-08-26T11:34:17.214Z,74.80
2022-08-26T11:37:16.598Z,76.00
2022-08-26T11:39:56.937Z,75.50
2022-08-26T11:42:44.959Z,74.30
2022-08-26T11:45:25.009Z,76.00
2022-08-26T11:48:26.845Z,73.80
2022-08-26T11:51:09.696Z,76.00
2022-08-26T11:54:09.365Z,76.00
2022-08-26T11:56:49.839Z,74.00
2022-08-26T12:02:17.983Z,71.90
2022-08-26T12:04:53.345Z,70.10
2022-08-26T12:07:29.317Z,69.00
2022-08-26T12:10:06.386Z,69.00
2022-08-26T12:12:40.303Z,65.50
2022-08-26T12:15:17.781Z,65.70
2022-08-26T12:17:54.568Z,69.00
2022-08-26T12:20:45.722Z,68.20
2022-08-26T12:23:36.487Z,67.30
2022-08-26T12:26:35.727Z,66.00
2022-08-26T12:29:20.272Z,66.20
2022-08-26T12:32:24.846Z,66.20
2022-08-26T12:34:57.941Z,67.60
2022-08-26T12:37:35.765Z,69.40
2022-08-26T12:40:27.467Z,66.60
2022-08-26T12:43:34.627Z,66.40
2022-08-26T12:46:15.866Z,66.60
2022-08-26T12:48:49.540Z,68.00
2022-08-26T12:51:42.940Z,68.30
2022-08-26T12:54:40.283Z,69.80
2022-08-26T12:57:37.375Z,70.40
2022-08-26T13:00:28.832Z,71.00
2022-08-26T13:03:04.972Z,70.90
2022-08-26T13:06:31.416Z,71.80
2022-08-26T13:09:29.317Z,72.10
2022-08-26T13:12:02.432Z,72.10
2022-08-26T13:14:35.195Z,71.80
2022-08-26T13:17:07.414Z,71.50
2022-08-26T13:19:40.111Z,71.70
2022-08-26T13:22:13.560Z,72.00
2022-08-26T13:24:46.786Z,70.40
2022-08-26T13:27:20.528Z,68.80
2022-08-26T13:29:57.665Z,68.10
2022-08-26T13:32:32.735Z,68.40
2022-08-26T13:35:05.563Z,68.80
2022-08-26T13:37:38.562Z,70.40
2022-08-26T13:40:14.300Z,71.90
2022-08-26T13:42:49.828Z,72.50
2022-08-26T13:45:22.419Z,72.30
2022-08-26T13:47:54.525Z,72.60
2022-08-26T13:50:26.591Z,73.20
2022-08-26T13:52:59.030Z,74.10
2022-08-26T13:55:31.521Z,76.90
2022-08-26T13:58:03.658Z,74.60
2022-08-26T14:00:36.410Z,74.70
2022-08-26T14:03:13.269Z,74.40
2022-08-26T14:05:45.802Z,72.60
2022-08-26T14:08:19.323Z,72.20
2022-08-26T14:10:52.301Z,72.60
2022-08-26T14:13:24.975Z,70.80
2022-08-26T14:15:59.752Z,71.70
2022-08-26T14:18:41.674Z,71.00
2022-08-26T14:21:14.898Z,70.00
2022-08-26T14:23:47.566Z,70.30
2022-08-26T14:26:28.699Z,70.70
2022-08-26T14:29:04.097Z,69.10
2022-08-26T14:31:37.796Z,70.40
2022-08-26T14:34:11.686Z,70.20
2022-08-26T14:36:44.518Z,68.00
2022-08-26T14:39:16.651Z,67.70
2022-08-26T14:41:54.483Z,67.40
2022-08-26T14:44:31.440Z,68.50
2022-08-26T14:47:06.642Z,68.60
2022-08-26T14:49:39.041Z,67.60
2022-08-26T14:52:11.079Z,66.30
2022-08-26T14:54:43.965Z,67.30
2022-08-26T14:57:16.461Z,66.50
2022-08-26T14:59:50.545Z,65.80
2022-08-26T15:02:32.661Z,66.10
2022-08-26T15:05:06.461Z,66.60
2022-08-26T15:07:40.879Z,67.90
2022-08-26T15:10:16.039Z,68.40
2022-08-26T15:12:49.697Z,69.00
2022-08-26T15:15:21.829Z,70.00
2022-08-26T15:17:53.883Z,70.60
2022-08-26T15:20:26.523Z,70.90
2022-08-26T15:23:06.090Z,69.50
2022-08-26T15:25:38.459Z,70.30
2022-08-26T15:28:13.554Z,71.40
2022-08-26T15:30:46.456Z,72.00
2022-08-26T15:33:18.548Z,72.30
2022-08-26T15:35:50.634Z,73.00
2022-08-26T15:38:22.952Z,74.90
2022-08-26T15:40:55.343Z,80.90
2022-08-26T15:43:29.473Z,85.30
2022-08-26T15:46:02.020Z,87.80
2022-08-26T15:48:34.818Z,87.60
2022-08-26T15:51:08.104Z,87.80
2022-08-26T15:53:58.566Z,89.50
2022-08-26T15:56:34.916Z,90.10
2022-08-26T15:59:08.583Z,91.20
2022-08-26T16:01:42.750Z,93.10
2022-08-26T16:04:15.234Z,95.20
2022-08-26T16:06:51.515Z,96.60
2022-08-26T16:09:27.146Z,98.60
2022-08-26T16:12:01.110Z,99.90
2022-08-26T16:14:33.347Z,99.90
2022-08-26T16:17:05.503Z,99.90
2022-08-26T16:19:37.752Z,99.90
2022-08-26T16:22:09.834Z,99.90
2022-08-26T16:24:41.953Z,99.90
2022-08-26T16:27:14.273Z,99.90
2022-08-26T16:29:46.568Z,99.90
2022-08-26T16:32:18.549Z,99.90
2022-08-26T16:34:56.119Z,99.90
2022-08-26T16:37:29.201Z,99.90
2022-08-26T16:40:01.304Z,99.90
2022-08-26T16:42:35.768Z,99.90
2022-08-26T16:45:09.767Z,99.90
2022-08-26T16:47:42.098Z,99.90
2022-08-26T16:50:15.098Z,99.90
2022-08-26T16:52:55.747Z,99.90
2022-08-26T16:55:27.978Z,99.90
2022-08-26T16:58:00.154Z,99.90
2022-08-26T17:00:33.211Z,99.90
2022-08-26T17:03:05.805Z,99.90
2022-08-26T17:05:38.205Z,99.90
2022-08-26T17:08:13.116Z,99.90
2022-08-26T17:10:47.797Z,99.90
2022-08-26T17:13:28.928Z,99.90
2022-08-26T17:16:10.887Z,99.90
2022-08-26T17:18:43.816Z,99.90
2022-08-26T17:21:16.313Z,99.90
2022-08-26T17:23:50.172Z,99.90
2022-08-26T17:26:23.560Z,99.90
2022-08-26T17:28:56.833Z,99.90
2022-08-26T17:31:30.095Z,99.90
2022-08-26T17:34:04.145Z,99.90
2022-08-26T17:36:36.749Z,99.90
2022-08-26T17:39:11.220Z,99.90
2022-08-26T17:41:44.152Z,99.90
2022-08-26T17:44:17.406Z,99.90
2022-08-26T17:46:49.713Z,99.90
2022-08-26T17:49:22.655Z,99.90
2022-08-26T17:51:58.526Z,99.90
2022-08-26T17:54:31.574Z,99.90
2022-08-26T17:57:05.001Z,99.90
2022-08-26T17:59:43.090Z,99.90
2022-08-26T18:02:16.566Z,99.90
2022-08-26T18:04:49.834Z,99.90
2022-08-26T18:07:22.730Z,99.90
2022-08-26T18:09:55.207Z,99.90
2022-08-26T18:12:27.878Z,99.90
2022-08-26T18:15:04.133Z,99.90
2022-08-26T18:17:39.142Z,99.90
2022-08-26T18:20:15.259Z,99.90
2022-08-26T18:22:49.677Z,99.90
2022-08-26T18:25:23.363Z,99.90
2022-08-26T18:27:55.726Z,99.90
2022-08-26T18:30:28.135Z,99.90
2022-08-26T18:33:01.405Z,99.90
2022-08-26T18:35:39.934Z,99.90
2022-08-26T18:38:16.716Z,99.90
2022-08-26T18:40:49.590Z,99.90
2022-08-26T18:43:22.860Z,99.90
2022-08-26T18:46:06.882Z,99.90
2022-08-26T18:48:41.194Z,99.90
2022-08-26T18:51:19.218Z,99.90
2022-08-26T18:53:55.527Z,99.90
2022-08-26T18:56:28.921Z,99.90
2022-08-26T18:59:02.290Z,99.90
2022-08-26T19:01:37.265Z,99.90
2022-08-26T19:04:15.348Z,99.90
2022-08-26T19:06:50.885Z,99.90
2022-08-26T19:09:26.282Z,99.90
2022-08-26T19:11:59.431Z,99.90
2022-08-26T19:14:32.567Z,99.90
2022-08-26T19:17:05.672Z,99.90
2022-08-26T19:19:38.959Z,99.90
2022-08-26T19:22:11.279Z,99.90
2022-08-26T19:24:43.395Z,99.90
2022-08-26T19:27:15.524Z,99.90
2022-08-26T19:29:47.897Z,99.90
2022-08-26T19:32:24.250Z,99.90
2022-08-26T19:34:56.500Z,99.90
2022-08-26T19:37:28.561Z,99.90
2022-08-26T19:40:01.312Z,99.90
2022-08-26T19:42:34.501Z,99.90
2022-08-26T19:45:24.696Z,99.90
2022-08-26T19:47:59.807Z,99.90
2022-08-26T19:50:34.761Z,99.90
2022-08-26T19:53:06.939Z,99.90
2022-08-26T19:55:39.588Z,99.90
2022-08-26T19:58:12.190Z,99.90
2022-08-26T20:00:44.347Z,99.90
2022-08-26T20:03:16.423Z,99.90
2022-08-26T20:05:49.359Z,99.90
2022-08-26T20:08:22.565Z,99.90
2022-08-26T20:10:55.677Z,99.90
2022-08-26T20:13:33.639Z,99.90
2022-08-26T20:16:07.176Z,99.90
2022-08-26T20:19:00.784Z,99.90
2022-08-26T20:21:52.755Z,99.90
2022-08-26T20:24:26.410Z,99.90
2022-08-26T20:27:05.500Z,99.90
2022-08-26T20:29:40.959Z,99.90
2022-08-26T20:32:13.947Z,99.90
2022-08-26T20:34:46.072Z,99.90
2022-08-26T20:37:21.644Z,99.90
2022-08-26T20:39:55.301Z,99.90
2022-08-26T20:42:27.550Z,99.90
2022-08-26T20:44:59.897Z,99.90
2022-08-26T20:47:32.462Z,99.90
2022-08-26T20:50:05.167Z,99.90
2022-08-26T20:52:39.264Z,99.90
2022-08-26T20:55:11.694Z,99.90
2022-08-26T20:57:43.834Z,99.90
2022-08-26T21:00:18.050Z,99.90
2022-08-26T21:02:53.855Z,99.90
2022-08-26T21:05:27.095Z,99.90
2022-08-26T21:07:59.139Z,99.90
2022-08-26T21:10:31.991Z,99.90
2022-08-26T21:13:05.261Z,99.90
2022-08-26T21:15:38.944Z,99.90
2022-08-26T21:18:11.519Z,99.90
2022-08-26T21:20:44.532Z,99.90
2022-08-26T21:23:16.616Z,99.90
2022-08-26T21:25:49.668Z,99.90
2022-08-26T21:28:21.732Z,99.90
2022-08-26T21:30:53.836Z,99.90
2022-08-26T21:33:25.820Z,99.90
2022-08-26T21:36:01.743Z,99.90
2022-08-26T21:38:36.617Z,99.90
2022-08-26T21:41:18.705Z,99.90
2022-08-26T21:43:53.869Z,99.90
2022-08-26T21:46:30.069Z,99.90
2022-08-26T21:49:04.216Z,99.90
2022-08-26T21:51:42.866Z,99.90
2022-08-26T21:54:18.230Z,99.90
2022-08-26T21:56:50.552Z,99.90
2022-08-26T21:59:22.667Z,99.90
2022-08-26T22:01:56.114Z,99.90
2022-08-26T22:04:28.658Z,99.90
2022-08-26T22:07:01.115Z,99.90
2022-08-26T22:09:33.749Z,99.90
2022-08-26T22:12:09.628Z,99.90
2022-08-26T22:14:43.320Z,99.90
2022-08-26T22:17:17.113Z,99.90
2022-08-26T22:19:49.552Z,99.90
2022-08-26T22:22:23.051Z,99.90
2022-08-26T22:24:55.171Z,99.90
2022-08-26T22:27:27.300Z,99.90
2022-08-26T22:29:59.390Z,99.90
2022-08-26T22:32:32.133Z,99.90
2022-08-26T22:35:28.047Z,99.90
2022-08-26T22:37:58.002Z,99.90
2022-08-26T22:40:30.344Z,99.90
2022-08-26T22:43:04.499Z,99.90
2022-08-26T22:45:42.157Z,99.90
2022-08-26T22:48:21.643Z,99.90
2022-08-26T22:51:00.001Z,99.90
2022-08-26T22:53:33.020Z,99.90
2022-08-26T22:56:09.473Z,99.90
2022-08-26T22:58:42.171Z,99.90
2022-08-26T23:01:16.200Z,99.90
2022-08-26T23:03:48.346Z,99.90
2022-08-26T23:06:20.554Z,99.90
2022-08-26T23:08:53.129Z,99.90
2022-08-26T23:11:25.291Z,99.90
2022-08-26T23:13:57.417Z,99.90
2022-08-26T23:16:37.802Z,99.90
2022-08-26T23:19:14.446Z,99.90
2022-08-26T23:21:49.820Z,99.90
2022-08-26T23:24:22.365Z,99.90
2022-08-26T23:26:54.421Z,99.90
2022-08-26T23:29:27.281Z,99.90
2022-08-26T23:32:00.354Z,99.90
2022-08-26T23:34:52.533Z,99.90
2022-08-26T23:37:33.408Z,99.90
2022-08-26T23:40:16.144Z,99.90
2022-08-26T23:42:53.459Z,99.90
2022-08-26T23:45:27.440Z,99.90
2022-08-26T23:47:59.929Z,99.90
2022-08-26T23:50:51.074Z,99.90
2022-08-26T23:53:43.352Z,99.90
2022-08-26T23:56:17.227Z,99.90
2022-08-26T23:58:49.651Z,99.90
